Airfield :
LOGIN :

Register | Disclaimer

   EN    FR    IT 

 










Legend :    VFR   Marginal VFR   IFR   Intensive IFR   Very Intensive IFR
Visi :
Ceiling :
>= 8 km
>= 3000ft
5 to 8 km
1000 to 3000 ft
1500m to 5 km
500 to 1000 ft
800 to 1500m
200 to 500 ft
< 800m
< 200 ft
Symbols :   Thunderstorms  Fog  Heavy snow  Heavy precipitations  Wind > 20 kt
SIGMETs :     Misc.  Thunderstorms  Icing  Turbulence  Mountain Waves  Volcanic Ashes







- Airport Elevation : 2096 ft
- IATA code : AUR
- Download approach charts


LFLW - Aurillac

CURRENT METAR :
  • 141900Z AUTO 31007KT 280V340 CAVOK 19/13 Q1021

EXPIRED METARs :
  • 141830Z AUTO 31010KT 280V350 CAVOK 20/13 Q1021
  • 141800Z AUTO 31011KT 280V340 9999 SCT047 SCT056 BKN066 21/13 Q1021
  • 141730Z AUTO 31011KT 270V340 9999 BKN037 BKN044 BKN052 21/13 Q1021 NOSIG
  • 141700Z AUTO 30009KT 270V330 9999 FEW036 BKN049 BKN072 20/14 Q1021 NOSIG
  • 141630Z AUTO 30010KT 9999 SCT035 BKN045 BKN074 20/13 Q1021 NOSIG

TAF TAF LFLW
Valid from the 14 at 15:00 until the 15 at 00:00 UTC


141400Z 1415/1424 32012KT 9999 FEW030 BKN070
BECMG 1422/1424 VRB02KT CAVOK
No reported NOTAMs for that airfield.



MET'MAP, your aeronautical weather chart ! - Copyright ORBIFLY December 2007 - Disclaimer

ORBIFLY MET'MAP TEAM :

Programming & Development : Alexandra Zaïnal
Concept & Development : Baudouin d'Aumeries
Co-Development & Prog : Marc-Olivier Méhu
Technical & hardware support : Manuel Goepfert

Contact : metmap@orbifly.com




SOURCES & CREDITS :

   NOAA